createdAt,value
2023-01-08T00:01:24.370Z,99.90
2023-01-08T00:03:53.363Z,99.90
2023-01-08T00:06:22.966Z,99.90
2023-01-08T00:08:52.454Z,99.90
2023-01-08T00:11:21.496Z,99.90
2023-01-08T00:13:50.567Z,99.90
2023-01-08T00:16:21.724Z,99.90
2023-01-08T00:18:51.013Z,99.90
2023-01-08T00:21:21.010Z,99.90
2023-01-08T00:23:50.084Z,99.90
2023-01-08T00:26:19.209Z,99.90
2023-01-08T00:28:49.291Z,99.90
2023-01-08T00:31:18.613Z,99.90
2023-01-08T00:33:49.120Z,99.90
2023-01-08T00:36:19.998Z,99.90
2023-01-08T00:38:49.133Z,99.90
2023-01-08T00:41:18.645Z,99.90
2023-01-08T00:43:47.687Z,99.90
2023-01-08T00:46:16.883Z,99.90
2023-01-08T00:48:45.955Z,99.90
2023-01-08T00:51:16.494Z,99.90
2023-01-08T00:53:45.589Z,99.90
2023-01-08T00:56:14.658Z,99.90
2023-01-08T00:58:43.726Z,99.90
2023-01-08T01:01:14.095Z,99.90
2023-01-08T01:03:43.884Z,99.90
2023-01-08T01:06:15.002Z,99.90
2023-01-08T01:08:45.788Z,99.90
2023-01-08T01:11:25.226Z,99.90
2023-01-08T01:13:55.907Z,99.90
2023-01-08T01:16:25.466Z,99.90
2023-01-08T01:18:55.753Z,99.90
2023-01-08T01:21:27.617Z,99.90
2023-01-08T01:24:00.397Z,99.90
2023-01-08T01:26:29.878Z,99.90
2023-01-08T01:29:00.187Z,99.90
2023-01-08T01:31:31.159Z,99.90
2023-01-08T01:34:00.776Z,99.90
2023-01-08T01:36:29.941Z,99.90
2023-01-08T01:39:00.619Z,99.90
2023-01-08T01:41:32.069Z,99.90
2023-01-08T01:44:02.878Z,99.90
2023-01-08T01:46:39.017Z,99.90
2023-01-08T01:49:15.591Z,99.90
2023-01-08T01:51:50.303Z,99.90
2023-01-08T01:54:22.425Z,99.90
2023-01-08T01:56:52.040Z,99.90
2023-01-08T01:59:21.119Z,99.90
2023-01-08T02:01:51.290Z,99.90
2023-01-08T02:04:20.718Z,99.90
2023-01-08T02:06:56.622Z,99.90
2023-01-08T02:09:37.036Z,99.90
2023-01-08T02:12:18.972Z,99.90
2023-01-08T02:15:05.264Z,99.90
2023-01-08T02:17:41.238Z,99.90
2023-01-08T02:20:14.249Z,99.90
2023-01-08T02:22:55.610Z,99.90
2023-01-08T02:25:37.264Z,99.90
2023-01-08T02:28:12.551Z,99.90
2023-01-08T02:30:41.771Z,99.90
2023-01-08T02:33:10.681Z,99.90
2023-01-08T02:35:43.822Z,99.90
2023-01-08T02:38:15.436Z,99.90
2023-01-08T02:40:54.894Z,99.90
2023-01-08T02:43:29.380Z,99.90
2023-01-08T02:46:02.752Z,99.90
2023-01-08T02:48:37.889Z,99.90
2023-01-08T02:51:11.834Z,99.90
2023-01-08T02:53:44.260Z,99.90
2023-01-08T02:56:16.552Z,99.90
2023-01-08T02:58:48.723Z,99.90
2023-01-08T03:01:19.820Z,99.90
2023-01-08T03:03:53.779Z,99.90
2023-01-08T03:06:24.198Z,99.90
2023-01-08T03:08:55.320Z,99.90
2023-01-08T03:11:26.501Z,99.90
2023-01-08T03:14:03.332Z,99.90
2023-01-08T03:16:37.310Z,99.90
2023-01-08T03:19:11.330Z,99.90
2023-01-08T03:21:41.806Z,99.90
2023-01-08T03:24:16.181Z,99.90
2023-01-08T03:26:48.454Z,99.90
2023-01-08T03:29:22.307Z,99.90
2023-01-08T03:31:54.353Z,99.90
2023-01-08T03:34:26.296Z,99.90
2023-01-08T03:36:57.250Z,99.90
2023-01-08T03:39:29.870Z,99.90
2023-01-08T03:42:02.090Z,99.90
2023-01-08T03:44:32.800Z,99.90
2023-01-08T03:47:01.962Z,99.90
2023-01-08T03:49:31.994Z,99.90
2023-01-08T03:52:01.120Z,99.90
2023-01-08T03:54:34.553Z,99.90
2023-01-08T03:57:03.841Z,99.90
2023-01-08T03:59:34.255Z,99.90
2023-01-08T04:02:03.546Z,99.90
2023-01-08T04:04:32.953Z,99.90
2023-01-08T04:07:01.994Z,99.90
2023-01-08T04:09:31.085Z,99.90
2023-01-08T04:12:00.337Z,99.90
2023-01-08T04:14:29.556Z,99.90
2023-01-08T04:17:00.027Z,99.90
2023-01-08T04:19:29.191Z,99.90
2023-01-08T04:21:58.203Z,99.90
2023-01-08T04:24:27.193Z,99.90
2023-01-08T04:27:14.912Z,99.90
2023-01-08T04:29:44.562Z,99.90
2023-01-08T04:32:15.110Z,99.90
2023-01-08T04:34:44.134Z,99.90
2023-01-08T04:37:13.162Z,99.90
2023-01-08T04:39:42.105Z,99.90
2023-01-08T04:42:11.157Z,99.90
2023-01-08T04:44:40.047Z,99.90
2023-01-08T04:47:08.988Z,99.90
2023-01-08T04:49:39.473Z,99.90
2023-01-08T04:52:08.513Z,99.90
2023-01-08T04:54:37.588Z,99.90
2023-01-08T04:57:06.526Z,99.90
2023-01-08T04:59:35.503Z,99.90
2023-01-08T05:02:04.823Z,99.90
2023-01-08T05:04:33.918Z,99.90
2023-01-08T05:07:05.498Z,99.90
2023-01-08T05:09:34.508Z,99.90
2023-01-08T05:12:03.498Z,99.90
2023-01-08T05:14:32.529Z,99.90
2023-01-08T05:17:01.453Z,99.90
2023-01-08T05:19:30.627Z,99.90
2023-01-08T05:21:59.737Z,99.90
2023-01-08T05:24:31.035Z,99.90
2023-01-08T05:27:00.216Z,99.90
2023-01-08T05:29:29.152Z,99.90
2023-01-08T05:31:58.284Z,99.90
2023-01-08T05:34:27.631Z,99.90
2023-01-08T05:36:56.605Z,99.90
2023-01-08T05:39:25.640Z,99.90
2023-01-08T05:41:56.198Z,99.90
2023-01-08T05:44:25.299Z,99.90
2023-01-08T05:46:55.277Z,99.90
2023-01-08T05:49:24.211Z,99.90
2023-01-08T05:51:53.412Z,99.90
2023-01-08T05:54:22.372Z,99.90
2023-01-08T05:56:51.417Z,99.90
2023-01-08T05:59:21.954Z,99.90
2023-01-08T06:01:51.257Z,99.90
2023-01-08T06:04:20.315Z,99.90
2023-01-08T06:06:49.489Z,99.90
2023-01-08T06:09:18.603Z,99.90
2023-01-08T06:11:47.590Z,99.90
2023-01-08T06:14:17.128Z,99.90
2023-01-08T06:16:47.864Z,99.90
2023-01-08T06:19:19.193Z,99.90
2023-01-08T06:21:48.428Z,99.90
2023-01-08T06:24:17.724Z,99.90
2023-01-08T06:26:46.702Z,99.90
2023-01-08T06:29:15.746Z,99.90
2023-01-08T06:31:44.869Z,99.90
2023-01-08T06:34:15.437Z,99.90
2023-01-08T06:36:44.669Z,99.90
2023-01-08T06:39:14.446Z,99.90
2023-01-08T06:41:45.677Z,99.90
2023-01-08T06:44:14.665Z,99.90
2023-01-08T06:46:43.643Z,99.90
2023-01-08T06:49:14.074Z,99.90
2023-01-08T06:51:44.715Z,99.90
2023-01-08T06:54:13.847Z,99.90
2023-01-08T06:56:52.963Z,99.90
2023-01-08T06:59:22.735Z,99.90
2023-01-08T07:01:52.033Z,99.90
2023-01-08T07:04:21.334Z,99.90
2023-01-08T07:06:51.730Z,99.90
2023-01-08T07:09:20.820Z,99.90
2023-01-08T07:11:49.749Z,99.90
2023-01-08T07:14:18.932Z,97.60
2023-01-08T07:16:47.865Z,95.50
2023-01-08T07:19:16.858Z,94.60
2023-01-08T07:21:46.225Z,95.30
2023-01-08T07:24:16.774Z,95.50
2023-01-08T07:26:45.887Z,95.80
2023-01-08T07:29:14.792Z,96.70
2023-01-08T07:31:43.778Z,96.90
2023-01-08T07:34:15.173Z,96.00
2023-01-08T07:36:44.574Z,94.10
2023-01-08T07:39:13.850Z,92.50
2023-01-08T07:41:44.855Z,91.10
2023-01-08T07:44:14.177Z,90.20
2023-01-08T07:46:43.297Z,89.70
2023-01-08T07:49:12.410Z,87.70
2023-01-08T07:51:41.560Z,87.40
2023-01-08T07:54:10.778Z,88.10
2023-01-08T07:56:39.848Z,85.00
2023-01-08T07:59:10.435Z,82.80
2023-01-08T08:01:39.848Z,83.30
2023-01-08T08:04:08.808Z,83.00
2023-01-08T08:06:37.888Z,81.30
2023-01-08T08:09:07.106Z,78.00
2023-01-08T08:11:36.211Z,73.40
2023-01-08T08:14:05.306Z,72.10
2023-01-08T08:16:35.947Z,72.50
2023-01-08T08:19:05.371Z,72.20
2023-01-08T08:21:34.396Z,70.60
2023-01-08T08:24:03.453Z,70.00
2023-01-08T08:26:32.823Z,69.60
2023-01-08T08:29:01.806Z,71.30
2023-01-08T08:31:31.400Z,71.20
2023-01-08T08:34:01.927Z,69.90
2023-01-08T08:36:31.354Z,67.90
2023-01-08T08:39:00.432Z,68.50
2023-01-08T08:41:29.644Z,66.50
2023-01-08T08:43:58.864Z,64.80
2023-01-08T08:46:27.877Z,64.40
2023-01-08T08:48:56.948Z,63.30
2023-01-08T08:51:27.575Z,61.10
2023-01-08T08:53:56.721Z,60.00
2023-01-08T08:56:25.886Z,60.50
2023-01-08T08:58:55.069Z,59.60
2023-01-08T09:01:24.453Z,58.50
2023-01-08T09:03:53.427Z,57.30
2023-01-08T09:06:22.494Z,57.70
2023-01-08T09:08:52.871Z,56.70
2023-01-08T09:11:21.972Z,55.80
2023-01-08T09:13:51.057Z,53.50
2023-01-08T09:16:20.116Z,51.70
2023-01-08T09:18:49.394Z,50.60
2023-01-08T09:21:18.366Z,50.90
2023-01-08T09:23:49.689Z,50.70
2023-01-08T09:26:20.275Z,50.10
2023-01-08T09:28:49.405Z,49.30
2023-01-08T09:31:18.403Z,48.90
2023-01-08T09:33:49.639Z,49.20
2023-01-08T09:36:18.908Z,48.30
2023-01-08T09:38:48.294Z,47.90
2023-01-08T09:41:23.145Z,47.10
2023-01-08T09:43:55.167Z,46.30
2023-01-08T09:46:27.857Z,47.00
2023-01-08T09:49:01.167Z,46.80
2023-01-08T09:51:35.924Z,46.50
2023-01-08T09:54:06.052Z,45.40
2023-01-08T09:56:37.260Z,45.40
2023-01-08T09:59:07.426Z,44.60
2023-01-08T10:01:39.456Z,44.00
2023-01-08T10:04:14.865Z,44.00
2023-01-08T10:06:50.629Z,43.80
2023-01-08T10:09:22.850Z,43.90
2023-01-08T10:11:54.908Z,43.60
2023-01-08T10:14:26.676Z,43.30
2023-01-08T10:16:59.619Z,43.70
2023-01-08T10:19:28.886Z,43.80
2023-01-08T10:22:00.566Z,44.00
2023-01-08T10:24:39.683Z,43.50
2023-01-08T10:27:15.224Z,42.60
2023-01-08T10:29:44.853Z,43.40
2023-01-08T10:32:17.837Z,43.60
2023-01-08T10:34:49.397Z,43.60
2023-01-08T10:37:30.145Z,43.70
2023-01-08T10:40:05.815Z,43.40
2023-01-08T10:42:38.013Z,43.10
2023-01-08T10:45:19.801Z,42.30
2023-01-08T10:47:50.823Z,42.30
2023-01-08T10:50:24.090Z,42.60
2023-01-08T10:52:58.045Z,42.00
2023-01-08T10:55:29.439Z,41.90
2023-01-08T10:58:01.685Z,41.20
2023-01-08T11:00:32.511Z,40.80
2023-01-08T11:03:04.281Z,40.90
2023-01-08T11:05:35.656Z,41.60
2023-01-08T11:08:07.789Z,42.30
2023-01-08T11:10:38.909Z,43.30
2023-01-08T11:13:18.086Z,44.30
2023-01-08T11:15:47.550Z,45.00
2023-01-08T11:18:21.834Z,45.90
2023-01-08T11:20:52.329Z,47.40
2023-01-08T11:23:24.004Z,47.40
2023-01-08T11:26:04.868Z,48.00
2023-01-08T11:28:45.635Z,48.50
2023-01-08T11:31:23.146Z,49.20
2023-01-08T11:33:57.424Z,49.40
2023-01-08T11:36:33.435Z,49.50
2023-01-08T11:39:02.616Z,49.30
2023-01-08T11:41:46.939Z,49.20
2023-01-08T11:44:33.188Z,49.70
2023-01-08T11:47:11.182Z,49.90
2023-01-08T11:50:01.471Z,50.30
2023-01-08T11:52:47.577Z,50.90
2023-01-08T11:55:34.425Z,50.80
2023-01-08T11:58:23.244Z,50.90
2023-01-08T12:01:09.295Z,51.20
2023-01-08T12:03:42.143Z,51.20
2023-01-08T12:06:23.871Z,51.30
2023-01-08T12:09:02.843Z,51.30
2023-01-08T12:11:38.017Z,51.50
2023-01-08T12:14:28.003Z,51.50
2023-01-08T12:17:13.895Z,51.60
2023-01-08T12:19:59.613Z,51.80
2023-01-08T12:22:43.053Z,51.90
2023-01-08T12:25:41.608Z,52.10
2023-01-08T12:28:23.453Z,52.30
2023-01-08T12:31:15.393Z,52.50
2023-01-08T12:33:51.319Z,52.70
2023-01-08T12:36:25.106Z,52.90
2023-01-08T12:38:57.266Z,52.90
2023-01-08T12:41:27.539Z,53.10
2023-01-08T12:44:02.854Z,53.10
2023-01-08T12:46:35.515Z,53.30
2023-01-08T12:49:08.121Z,53.40
2023-01-08T12:51:40.954Z,53.40
2023-01-08T12:54:21.251Z,53.60
2023-01-08T12:56:57.432Z,53.70
2023-01-08T12:59:37.002Z,53.80
2023-01-08T13:02:20.474Z,53.80
2023-01-08T13:04:51.128Z,54.00
2023-01-08T13:07:22.813Z,54.10
2023-01-08T13:09:58.936Z,54.10
2023-01-08T13:12:37.893Z,54.60
2023-01-08T13:15:08.662Z,54.80
2023-01-08T13:17:39.539Z,54.60
2023-01-08T13:20:11.241Z,54.70
2023-01-08T13:22:40.499Z,54.60
2023-01-08T13:25:31.601Z,54.60
2023-01-08T13:28:01.881Z,54.80
2023-01-08T13:30:38.801Z,55.00
2023-01-08T13:33:39.785Z,55.10
2023-01-08T13:36:25.709Z,55.20
2023-01-08T13:39:03.287Z,55.20
2023-01-08T13:41:34.530Z,55.10
2023-01-08T13:44:05.529Z,55.30
2023-01-08T13:46:41.104Z,55.50
2023-01-08T13:49:12.098Z,55.50
2023-01-08T13:51:45.024Z,55.60
2023-01-08T13:54:24.483Z,55.60
2023-01-08T13:56:56.562Z,55.60
2023-01-08T13:59:51.394Z,55.80
2023-01-08T14:02:31.701Z,55.70
2023-01-08T14:05:05.203Z,55.60
2023-01-08T14:07:41.394Z,55.70
2023-01-08T14:10:14.570Z,55.60
2023-01-08T14:12:44.517Z,55.40
2023-01-08T14:15:22.865Z,55.30
2023-01-08T14:17:53.333Z,55.20
2023-01-08T14:20:30.402Z,55.20
2023-01-08T14:23:01.661Z,55.00
2023-01-08T14:25:31.478Z,55.40
2023-01-08T14:28:03.048Z,55.40
2023-01-08T14:30:32.671Z,55.30
2023-01-08T14:33:02.457Z,55.30
2023-01-08T14:35:35.437Z,55.00
2023-01-08T14:38:06.439Z,54.90
2023-01-08T14:40:41.449Z,54.80
2023-01-08T14:43:12.901Z,54.80
2023-01-08T14:45:48.797Z,54.80
2023-01-08T14:48:23.882Z,54.90
2023-01-08T14:51:04.034Z,55.10
2023-01-08T14:53:38.149Z,55.30
2023-01-08T14:56:08.780Z,55.50
2023-01-08T14:58:42.190Z,55.50
2023-01-08T15:01:19.476Z,55.80
2023-01-08T15:04:10.718Z,55.90
2023-01-08T15:06:39.885Z,56.20
2023-01-08T15:09:23.142Z,56.40
2023-01-08T15:11:55.335Z,56.60
2023-01-08T15:14:26.045Z,56.80
2023-01-08T15:16:58.097Z,57.00
2023-01-08T15:19:29.199Z,58.10
2023-01-08T15:22:00.926Z,58.40
2023-01-08T15:24:33.588Z,58.70
2023-01-08T15:27:10.427Z,59.10
2023-01-08T15:29:42.143Z,59.30
2023-01-08T15:32:12.610Z,59.50
2023-01-08T15:34:42.189Z,59.80
2023-01-08T15:37:11.332Z,60.00
2023-01-08T15:39:42.115Z,60.10
2023-01-08T15:42:37.377Z,60.30
2023-01-08T15:45:08.556Z,60.60
2023-01-08T15:47:56.085Z,60.80
2023-01-08T15:50:26.031Z,61.10
2023-01-08T15:52:56.669Z,61.40
2023-01-08T15:55:27.414Z,61.60
2023-01-08T15:57:56.634Z,62.00
2023-01-08T16:00:26.157Z,62.40
2023-01-08T16:02:56.558Z,62.70
2023-01-08T16:05:27.784Z,63.00
2023-01-08T16:07:57.064Z,63.30
2023-01-08T16:10:29.328Z,63.70
2023-01-08T16:12:58.467Z,64.10
2023-01-08T16:15:28.952Z,64.30
2023-01-08T16:17:58.479Z,64.70
2023-01-08T16:20:27.879Z,64.90
2023-01-08T16:22:57.406Z,65.20
2023-01-08T16:25:28.180Z,65.60
2023-01-08T16:27:57.630Z,65.80
2023-01-08T16:30:28.197Z,66.00
2023-01-08T16:32:57.221Z,66.20
2023-01-08T16:35:26.291Z,66.40
2023-01-08T16:37:56.733Z,66.70
2023-01-08T16:40:27.155Z,66.80
2023-01-08T16:43:01.338Z,67.20
2023-01-08T16:45:30.541Z,67.20
2023-01-08T16:47:59.587Z,67.40
2023-01-08T16:50:28.869Z,67.60
2023-01-08T16:52:58.206Z,67.70
2023-01-08T16:55:28.870Z,67.80
2023-01-08T16:57:57.838Z,67.90
2023-01-08T17:00:27.157Z,68.10
2023-01-08T17:02:56.299Z,68.30
2023-01-08T17:05:25.548Z,68.50
2023-01-08T17:07:55.251Z,68.60
2023-01-08T17:10:24.836Z,68.90
2023-01-08T17:12:55.887Z,69.10
2023-01-08T17:15:24.923Z,69.40
2023-01-08T17:17:54.211Z,69.50
2023-01-08T17:20:24.251Z,69.80
2023-01-08T17:22:54.327Z,70.20
2023-01-08T17:25:23.815Z,70.30
2023-01-08T17:27:54.129Z,70.40
2023-01-08T17:30:24.893Z,70.00
2023-01-08T17:32:54.085Z,69.50
2023-01-08T17:35:23.023Z,69.00
2023-01-08T17:37:52.018Z,68.60
2023-01-08T17:40:21.186Z,68.10
2023-01-08T17:42:50.362Z,67.80
2023-01-08T17:45:19.465Z,67.50
2023-01-08T17:47:50.234Z,67.20
2023-01-08T17:50:20.854Z,67.00
2023-01-08T17:52:50.617Z,66.70
2023-01-08T17:55:20.385Z,66.50
2023-01-08T17:57:49.833Z,66.40
2023-01-08T18:00:20.176Z,66.20
2023-01-08T18:02:50.986Z,66.10
2023-01-08T18:05:19.957Z,66.00
2023-01-08T18:07:49.227Z,66.10
2023-01-08T18:10:18.608Z,66.00
2023-01-08T18:12:47.892Z,66.10
2023-01-08T18:15:39.652Z,66.20
2023-01-08T18:18:10.313Z,66.20
2023-01-08T18:20:58.213Z,66.30
2023-01-08T18:23:27.260Z,66.30
2023-01-08T18:25:56.422Z,66.30
2023-01-08T18:28:25.409Z,66.50
2023-01-08T18:30:54.406Z,66.30
2023-01-08T18:33:25.055Z,66.20
2023-01-08T18:35:54.142Z,66.30
2023-01-08T18:38:23.558Z,66.20
2023-01-08T18:40:53.514Z,66.20
2023-01-08T18:43:22.603Z,66.20
2023-01-08T18:45:51.652Z,66.20
2023-01-08T18:48:20.744Z,66.30
2023-01-08T18:50:51.800Z,66.30
2023-01-08T18:53:39.840Z,66.40
2023-01-08T18:56:10.630Z,66.40
2023-01-08T18:58:58.424Z,66.60
2023-01-08T19:01:28.041Z,66.50
2023-01-08T19:03:57.724Z,66.60
2023-01-08T19:06:28.251Z,66.70
2023-01-08T19:09:00.146Z,66.80
2023-01-08T19:11:30.639Z,66.90
2023-01-08T19:14:00.193Z,67.10
2023-01-08T19:16:29.518Z,67.00
2023-01-08T19:18:58.777Z,67.20
2023-01-08T19:21:29.375Z,67.20
2023-01-08T19:23:58.543Z,67.20
2023-01-08T19:26:27.441Z,67.20
2023-01-08T19:28:56.438Z,67.30
2023-01-08T19:31:25.515Z,67.50
2023-01-08T19:33:54.863Z,67.50
2023-01-08T19:36:26.213Z,67.60
2023-01-08T19:38:57.650Z,67.40
2023-01-08T19:41:43.918Z,67.50
2023-01-08T19:44:13.514Z,67.50
2023-01-08T19:46:42.686Z,67.40
2023-01-08T19:49:12.373Z,67.40
2023-01-08T19:51:41.546Z,67.40
2023-01-08T19:54:13.977Z,68.10
2023-01-08T19:56:43.141Z,67.30
2023-01-08T19:59:13.392Z,67.20
2023-01-08T20:01:43.380Z,67.80
2023-01-08T20:04:13.148Z,67.20
2023-01-08T20:06:42.185Z,67.00
2023-01-08T20:09:12.631Z,67.00
2023-01-08T20:11:41.726Z,67.00
2023-01-08T20:14:10.697Z,66.90
2023-01-08T20:16:39.812Z,66.90
2023-01-08T20:19:08.975Z,66.80
2023-01-08T20:21:38.803Z,66.80
2023-01-08T20:24:11.093Z,66.60
2023-01-08T20:26:42.168Z,66.50
2023-01-08T20:29:11.357Z,66.50
2023-01-08T20:31:41.078Z,66.40
2023-01-08T20:34:14.468Z,66.40
2023-01-08T20:36:44.806Z,66.40
2023-01-08T20:39:16.179Z,66.20
2023-01-08T20:41:55.444Z,66.20
2023-01-08T20:44:30.231Z,66.10
2023-01-08T20:46:59.568Z,66.60
2023-01-08T20:49:29.867Z,65.80
2023-01-08T20:52:00.349Z,65.70
2023-01-08T20:54:30.846Z,65.70
2023-01-08T20:57:02.230Z,65.70
2023-01-08T20:59:31.948Z,65.60
2023-01-08T21:02:01.489Z,65.50
2023-01-08T21:04:30.603Z,65.30
2023-01-08T21:06:59.766Z,65.40
2023-01-08T21:09:28.826Z,65.30
2023-01-08T21:11:57.839Z,65.30
2023-01-08T21:14:28.523Z,65.40
2023-01-08T21:16:57.909Z,65.50
2023-01-08T21:19:26.941Z,65.60
2023-01-08T21:21:56.238Z,66.10
2023-01-08T21:24:25.406Z,65.50
2023-01-08T21:26:54.449Z,65.60
2023-01-08T21:29:24.117Z,65.70
2023-01-08T21:31:55.335Z,65.80
2023-01-08T21:34:24.635Z,65.80
2023-01-08T21:36:53.670Z,65.70
2023-01-08T21:39:22.812Z,65.90
2023-01-08T21:42:09.094Z,65.80
2023-01-08T21:44:55.288Z,65.80
2023-01-08T21:47:25.936Z,65.90
2023-01-08T21:49:55.036Z,66.00
2023-01-08T21:52:41.081Z,66.10
2023-01-08T21:55:10.630Z,66.20
2023-01-08T21:57:42.665Z,66.30
2023-01-08T22:00:13.001Z,66.40
2023-01-08T22:02:44.079Z,66.50
2023-01-08T22:05:13.198Z,66.60
2023-01-08T22:07:42.314Z,66.60
2023-01-08T22:10:12.729Z,67.00
2023-01-08T22:12:42.254Z,66.60
2023-01-08T22:15:11.655Z,66.60
2023-01-08T22:17:40.542Z,66.60
2023-01-08T22:20:12.763Z,66.70
2023-01-08T22:22:42.967Z,66.60
2023-01-08T22:25:12.153Z,66.60
2023-01-08T22:27:41.352Z,66.50
2023-01-08T22:30:13.141Z,66.50
2023-01-08T22:32:42.261Z,66.10
2023-01-08T22:35:12.848Z,66.40
2023-01-08T22:37:43.842Z,66.50
2023-01-08T22:40:31.357Z,66.50
2023-01-08T22:43:00.404Z,66.60
2023-01-08T22:45:29.407Z,66.60
2023-01-08T22:47:58.740Z,66.70
2023-01-08T22:50:29.182Z,66.70
2023-01-08T22:52:58.462Z,66.80
2023-01-08T22:55:27.437Z,66.70
2023-01-08T22:57:56.481Z,66.70
2023-01-08T23:00:25.890Z,66.70
2023-01-08T23:02:54.935Z,66.60
2023-01-08T23:05:23.901Z,66.60
2023-01-08T23:07:54.768Z,66.60
2023-01-08T23:10:23.961Z,66.70
2023-01-08T23:12:53.679Z,66.70
2023-01-08T23:15:23.982Z,66.90
2023-01-08T23:17:53.104Z,66.80
2023-01-08T23:20:24.276Z,66.90
2023-01-08T23:22:55.906Z,66.90
2023-01-08T23:25:25.060Z,66.80
2023-01-08T23:27:54.265Z,66.90
2023-01-08T23:30:23.495Z,66.80
2023-01-08T23:32:53.210Z,66.90
2023-01-08T23:35:22.299Z,67.00
2023-01-08T23:37:51.289Z,67.00
2023-01-08T23:40:21.865Z,67.00
2023-01-08T23:42:50.996Z,67.70
2023-01-08T23:45:20.029Z,67.10
2023-01-08T23:47:49.092Z,67.20
2023-01-08T23:50:18.502Z,67.20
2023-01-08T23:52:47.435Z,67.20
2023-01-08T23:55:16.617Z,67.20
2023-01-08T23:57:47.206Z,67.30
